This is the latest recevied weather packets stored in our database for station/object ke5jzm-1. If no packets are shown the sender has not sent any weather packets the latest 10 day(s).
| Time | Temp. | Humidity | Pressure | Rain* | Wind** | Luminosity | Snow |
|---|---|---|---|---|---|---|---|
| 1778343348 | 24.44° C | 62% | 1012.7 hPa | 7.62 mm | - | 66 W/m² | - |
| 1778343226 | 24.44° C | 62% | 1012.7 hPa | 7.37 mm | - | 59 W/m² | - |
| 1778343166 | 24.44° C | 63% | 1012.7 hPa | 7.62 mm | - | 53 W/m² | - |
| 1778343107 | 24.44° C | 63% | 1012.8 hPa | 8.38 mm | - | 49 W/m² | - |
| 1778343045 | 24.44° C | 62% | 1012.8 hPa | 8.38 mm | - | 44 W/m² | - |
| 1778342988 | 24.44° C | 62% | 1012.9 hPa | 8.64 mm | - | 37 W/m² | - |
| 1778342925 | 24.44° C | 62% | 1013 hPa | 8.89 mm | - | 31 W/m² | - |
| 1778342887 | 24.44° C | 62% | 1013.1 hPa | 9.14 mm | - | 27 W/m² | - |
| 1778342806 | 24.44° C | 62% | 1013.2 hPa | 9.4 mm | - | 26 W/m² | - |
| 1778342755 | 24.44° C | 62% | 1013.2 hPa | 9.65 mm | - | 26 W/m² | - |
| 1778342748 | 24.44° C | 63% | 1013.3 hPa | 10.16 mm | - | 26 W/m² | - |
| 1778342626 | 24.44° C | 63% | 1013.3 hPa | 10.16 mm | - | 26 W/m² | - |
| 1778342564 | 24.44° C | 63% | 1013.5 hPa | 10.41 mm | - | 25 W/m² | - |
| 1778342503 | 24.44° C | 62% | 1013.5 hPa | 10.41 mm | - | 26 W/m² | - |
| 1778342444 | 24.44° C | 63% | 1013.5 hPa | 10.41 mm | - | 28 W/m² | - |
| 1778342388 | 24.44° C | 62% | 1013.4 hPa | 10.16 mm | - | 28 W/m² | - |
| 1778342324 | 24.44° C | 62% | 1013.3 hPa | 9.91 mm | - | 28 W/m² | - |
| 1778342264 | 24.44° C | 62% | 1013.2 hPa | 9.65 mm | - | 28 W/m² | - |
| 1778342205 | 24.44° C | 62% | 1013 hPa | 9.4 mm | - | 27 W/m² | - |
| 1778342145 | 24.44° C | 62% | 1012.9 hPa | 8.38 mm | - | 27 W/m² | - |
| 1778342088 | 24.44° C | 62% | 1012.9 hPa | 7.62 mm | - | 28 W/m² | - |
| 1778342025 | 24.44° C | 62% | 1013 hPa | 7.37 mm | - | 30 W/m² | - |
| 1778341964 | 24.44° C | 62% | 1013.2 hPa | 7.62 mm | - | 31 W/m² | - |
| 1778341904 | 24.44° C | 62% | 1013.3 hPa | 7.62 mm | - | 31 W/m² | - |
| 1778341844 | 24.44° C | 62% | 1013.3 hPa | 7.62 mm | - | 30 W/m² | - |
* Rain latest hour (hover to see other rain measurements)
** Current wind speed in m/s (hover to see current wind gust speed)